Relevés horaires Kleine Brogel (Belgique)


Relevés horaires à Kleine Brogel - Samedi 06 Avr. 2024
Heure UTC1 Température [°C] Vent [km/h] Hum. [%] Pres.4 [hPa] Visi. [Km] Nébu. [octa] Préc.5 [mm] Cond.
2m. Res. Ros. Dir.2 Vit. Moy. Raf.3
23:00 18.2 18.2 9.4 NNO 1.9 -- 5.6 56 1008.3(-0.5/3h) 20 -- -- --
22:00 17.8 17.8 10.2 NNO 1.9 -- 5.6 61 1008.2(-1.0/3h) 20 -- -- --
21:00 17.3 17.3 10.1 NNO 1.9 -- 5.6 63 1008.7(-0.3/3h) 20 -- -- --
20:00 16.7 16.7 9.1 NNO 1.9 -- 3.7 61 1009.1(-0.1/3h) 20 -- -- --
19:00 19.9 19.9 8.0 NNO 1.9 -- 5.6 46 1009.2(0.3/3h) 20 -- -- --
18:00 22.3 22.3 7.5 SSO 3.7 -- 24.1 39 1009.1(0.3/3h) 20 -- -- --
17:00 24.4 24.4 6.6 SO 9.3 -- 20.4 32 1009(0.3/3h) 20 -- -- --
16:00 25.2 25.2 7.1 SO 9.3 -- 24.1 31 1008.8(0.1/3h) 20 -- -- --
15:00 25.2 25.2 7.9 SO 13.0 -- 24.1 33 1008.7(0.5/3h) 20 -- -- --
14:00 25.2 25.2 8.2 SSO 9.3 -- 18.5 34 1008.7(0.0/3h) 20 -- -- --
13:00 24.7 24.7 8.3 SSO 9.3 -- 18.5 35 1008.7(-0.2/3h) 20 -- -- --
12:00 24.1 24.1 7.4 S 9.3 -- 18.5 34 1008.2(-1.6/3h) 20 -- -- --
11:00 23.2 23.2 8.0 S 5.6 -- 18.5 38 1008.7(-1.0/3h) 20 -- -- --
10:00 21.7 21.7 8.5 S 7.4 -- 16.7 43 1009(-1.2/3h) 20 -- -- --
09:00 19.7 19.7 8.4 S 7.4 -- 16.7 48 1009.8(-0.7/3h) 20 -- -- --
08:00 18.4 18.4 9.0 S 7.4 -- 13.0 54 1010(-0.6/3h) 20 -- -- --
07:00 16.4 16.4 10.3 S 3.7 -- 9.3 67 1010.3(-0.6/3h) 20 -- -- --
06:00 13.0 13.0 10.4 SSE 3.7 -- 7.4 84 1010.7(-0.7/3h) 20 -- 0.1/12h
--
05:00 12.3 12.3 10.3 NNO 1.9 -- 5.6 88 1010.7(-1.4/3h) 20 -- -- --
04:00 12.0 12.0 10.5 NNO 1.9 -- 5.6 91 1011.2(-0.9/3h) 20 -- -- --
03:00 12.3 12.3 11.4 NNO 1.9 -- 7.4 94 1011.5(-0.5/3h) 20 -- -- --
02:00 12.1 12.1 11.2 NNO 1.9 -- 5.6 94 1012.2(-0.2/3h) 20 -- -- --
01:00 13.1 13.1 11.5 NNO 1.9 -- 7.4 90 1012.2(0.0/3h) 20 -- -- --
00:00 15.1 15.1 12.2 SSO 5.6 -- 16.7 83 1012.1(0.1/3h) 20 -- 0.1/6h
NA

1 Coordinated Universal Time. Actuellement il est 02:00 locale et 00:00 UTC.

2 Le vent souffle depuis la direction indiquée vers la direction oposée.

3 Les rafales max. sont disponible 40 min après l'heure du relevé.

4 Pour les stations d'altitude (plus de 600m) le géopotentiel du niveau le plus proche de la pression obligatoire est indiqué.

5 Les stations disposant d'un diffuseur peuvent indiquer "trace". Cela signifie que des précipitations ont touchés le sol mais que la quantité est inférieure à 0.1 mm.

Récapitulatif de la journée
Température [°C] Vent [km/h] Ensoleillement4 [h] Precipitations totale5 [mm] Pression [Hpa]
Min1 Max.2 Moy.3 Max. Min Max.
11.1 25.6 0 24.1 0 h 0 min 0 1008.2 1012.2

1 Température minimale relevée entre 18:00 UTC la veille et 18:00 UTC le jour donné.

2 Température maximale relevée entre 06:00 UTC le jour donné et 06:00 UTC le lendemain.

3 Vent moyen de la journée basé sur les relevés horaires.

4 Ensoleillement en heures relevé entre 06:00 UTC la veille et 06:00 UTC le jour donné.

5 Précipitations totales tombées entre 06:00 UTC la jour donné et 06:00 UTC le lendemain.

Graphiques horaires